South Mason Valley, Nevada Weather observations

Data are for 10 minute period ending at time listed.
 Day   Time   Solar   Ave.   Ave.  Ave.  Vector  Max.   Baro.   Total    
  of    of     Rad.   Air    Rel.  Wind   Wind   Wind  Press.  Precip.   
Year   Day            Temp.  Hum.  Speed  Dir.   Gust                    
2015   (PST)  Kw/m2    F      %     mph   deg.    mph    mb.     in.     
-------------------------------------------------------------------------
 209   15:50   0.53   85.6    11    3.0   358     6.6   881.3    0.00 
 209   16:00   0.50   86.0    13    2.9   143     8.4   881.2    0.00 
 209   16:10   0.48   85.0    15    3.1   242    10.4   881.1    0.00 
 209   16:20   0.45   85.4    11    5.6    12    10.2   881.2    0.00 
 209   16:30   0.42   85.9    11    5.5   339     8.7   881.1    0.00 
 209   16:40   0.39   85.8    11    5.1   334     9.4   881.1    0.00 
 209   16:50   0.36   85.3    11    4.8   356    11.2   881.1    0.00 
 209   17:00   0.33   85.6    10    3.9     4     7.1   881.0    0.00 
 209   17:10   0.30   85.6    11    3.6    52     6.5   880.9    0.00 
 209   17:20   0.27   85.1    11    4.2    26     8.0   881.0    0.00 
 209   17:30   0.24   84.4    11    6.2     6    10.8   880.9    0.00 
 209   17:40   0.21   83.8    11    6.7    26    11.6   881.0    0.00 
 209   17:50   0.19   83.5    11    5.8    22     9.8   881.0    0.00 
 209   18:00   0.16   83.1    12    5.8    24     9.6   881.0    0.00 
 209   18:10   0.13   82.4    12    6.1    20    11.3   881.1    0.00 
 209   18:20   0.11   81.6    12    5.1    22     8.1   881.1    0.00 
 209   18:30   0.09   80.9    12    3.9    21     5.6   881.1    0.00 
 209   18:40   0.07   79.8    13    3.0    23     4.0   881.1    0.00 
 209   18:50   0.04   78.4    14    3.1    22     4.5   881.1    0.00 
 209   19:00   0.03   77.7    14    1.6    24     2.5   881.2    0.00 
 209   19:10   0.01   76.6    15    1.3    10     1.8   881.3    0.00 
 209   19:20   0.00   74.4    17    1.7   352     2.4   881.2    0.00 
 209   19:30   0.00   73.0    18    2.1     2     2.7   881.2    0.00 
 209   19:40   0.00   72.6    17    2.6     4     3.9   881.2    0.00 
 209   19:50   0.00   72.2    17    2.9     7     3.7   881.2    0.00 
 209   20:00   0.00   71.3    18    2.6     8     3.7   881.3    0.00 
 209   20:10   0.00   70.0    20    2.2   358     3.0   881.3    0.00 
 209   20:20   0.00   67.9    22    2.8   348     3.7   881.4    0.00 
 209   20:30   0.00   68.8    20    2.3     2     3.3   881.4    0.00 
 209   20:40   0.00   69.6    19    2.9     3     3.8   881.5    0.00 
 209   20:50   0.00   68.8    20    2.2     1     2.9   881.6    0.00 
 209   21:00   0.00   67.9    20    3.4     5     5.7   881.7    0.00 
 209   21:10   0.00   68.7    19    4.8     7     7.5   881.7    0.00 
 209   21:20   0.00   68.9    17    5.2    13     8.3   881.9    0.00 
 209   21:30   0.00   69.8    15    6.0    20    10.1   881.9    0.00 
 209   21:40   0.00   69.4    14    5.7    20     8.8   882.0    0.00 
 209   21:50   0.00   69.9    14    6.6    24     9.9   882.0    0.00 
 209   22:00   0.00   69.8    13    5.3    31     9.9   882.0    0.00 
 209   22:10   0.00   69.4    13    5.5    29     8.6   882.1    0.00 
 209   22:20   0.00   68.7    14    4.5    28     7.3   882.2    0.00 
 209   22:30   0.00   67.6    14    4.8    22     7.2   882.2    0.00 
 209   22:40   0.00   67.0    14    5.4    13     8.5   882.2    0.00 
 209   22:50   0.00   65.3    16    4.3   350     6.3   882.2    0.00 
 209   23:00   0.00   63.4    17    4.8   340     6.3   882.2    0.00 
 209   23:10   0.00   62.8    18    4.5   327     5.9   882.3    0.00 
 209   23:20   0.00   62.0    20    4.0   318     5.1   882.2    0.00 
 209   23:30   0.00   60.2    22    3.9   310     5.0   882.2    0.00 
 209   23:40   0.00   59.3    22    4.1   303     5.6   882.2    0.00 
 209   23:50   0.00   57.7    25    4.9   295     5.8   882.2    0.00 
 210    0:00   0.00   56.4    26    4.5   296     6.0   882.2    0.00 
 210    0:10   0.00   55.6    27    5.0   300     6.2   882.2    0.00 
 210    0:20   0.00   54.5    29    4.1   310     5.6   882.2    0.00 
 210    0:30   0.00   56.1    26    4.3   319     6.3   882.2    0.00 
 210    0:40   0.00   59.1    22    3.0   313     5.7   882.2    0.00 
 210    0:50   0.00   54.8    32    3.1   165     5.4   882.4    0.00 
 210    1:00   0.00   51.3    39    3.3   201     4.3   882.5    0.00 
 210    1:10   0.00   51.3    37    1.7   238     3.1   882.6    0.00 
 210    1:20   0.00   50.4    38    1.3   287     2.7   882.5    0.00 
 210    1:30   0.00   52.2    36    2.0   292     3.2   882.6    0.00 
 210    1:40   0.00   49.9    41    1.6   139     3.0   882.7    0.00 
 210    1:50   0.00   49.5    42    0.8   102     3.1   882.6    0.00 
 210    2:00   0.00   47.3    48    4.1   163     5.4   882.8    0.00 
 210    2:10   0.00   47.3    45    2.0   176     4.8   882.9    0.00 
 210    2:20   0.00   49.1    40    1.9   171     3.3   882.9    0.00 
 210    2:30   0.00   49.4    38    0.2   141     1.5   883.0    0.00 
 210    2:40   0.00   50.4    35    0.2   298     1.0   883.0    0.00 
 210    2:50   0.00   51.9    31    2.0   311     3.4   883.1    0.00 
 210    3:00   0.00   53.2    29    3.0   297     3.7   883.1    0.00 
 210    3:10   0.00   52.4    31    1.7   328     2.8   883.1    0.00 
 210    3:20   0.00   51.9    31    2.2   310     3.3   883.3    0.00 
 210    3:30   0.00   51.3    32    2.6   305     4.0   883.3    0.00 
 210    3:40   0.00   51.0    32    3.1   288     4.3   883.3    0.00 
 210    3:50   0.00   50.2    36    2.9   295     3.6   883.4    0.00 
 210    4:00   0.00   49.1    39    3.5   291     4.2   883.5    0.00 
 210    4:10   0.00   48.2    42    3.7   289     4.5   883.5    0.00 
 210    4:20   0.00   47.1    45    2.3   291     3.7   883.6    0.00 
 210    4:30   0.00   46.5    47    0.5   255     1.5   883.7    0.00 
 210    4:40   0.00   46.1    47    0.8   131     2.0   883.8    0.00 
 210    4:50   0.00   47.1    44    0.3   135     2.0   883.8    0.00 
 210    5:00   0.01   48.6    40    2.5   301     3.3   883.8    0.00 
 210    5:10   0.02   48.8    40    3.1   284     3.9   883.9    0.00 
 210    5:20   0.04   50.1    37    2.6   297     3.6   883.9    0.00 
 210    5:30   0.06   53.2    31    1.0   347     2.0   884.1    0.00 
 210    5:40   0.08   55.6    35    0.9   307     2.6   884.2    0.00 
 210    5:50   0.11   54.8    40    1.3   314     2.3   884.3    0.00 
 210    6:00   0.13   56.9    40    1.2   316     2.6   884.3    0.00 
 210    6:10   0.16   60.3    34    0.2    11     1.5   884.4    0.00 
 210    6:20   0.19   63.6    34    0.7   266     2.0   884.4    0.00 
 210    6:30   0.22   63.6    38    1.1   227     1.8   884.3    0.00 
 210    6:40   0.25   63.6    38    1.4   259     2.6   884.4    0.00 
 210    6:50   0.28   64.3    34    1.9   256     3.0   884.5    0.00 
 210    7:00   0.31   65.4    31    2.5   257     3.4   884.5    0.00 
 210    7:10   0.34   66.7    33    2.1   240     3.6   884.6    0.00 
 210    7:20   0.37   68.8    23    2.1   305     4.4   884.8    0.00 
 210    7:30   0.40   70.2    18    3.7   352     6.1   884.8    0.00 
 210    7:40   0.43   70.8    18    4.7   343     9.5   885.0    0.00 
 210    7:50   0.46   71.4    17    4.0    10     8.0   885.2    0.00 
 210    8:00   0.48   71.9    17    3.7    10     6.1   885.3    0.00 
 210    8:10   0.51   73.6    19    1.2   308     4.0   885.4    0.00 
 210    8:20   0.54   74.6    16    1.4   320     4.7   885.4    0.00 
 210    8:30   0.57   74.4    14    2.8   330     5.5   885.4    0.00 
 210    8:40   0.59   75.2    15    3.9   343     6.1   885.3    0.00 
 210    8:50   0.62   75.4    16    3.4   310     7.8   885.3    0.00 
 210    9:00   0.64   75.5    15    3.8   308     7.5   885.3    0.00 
 210    9:10   0.66   76.2    15    2.7   302     5.8   885.4    0.00 
 210    9:20   0.69   75.6    21    3.0   246     5.6   885.3    0.00 
 210    9:30   0.71   76.9    16    2.3   338     5.5   885.3    0.00 
 210    9:40   0.73   78.2    16    2.7   303     5.8   885.3    0.00 
 210    9:50   0.75   79.1    13    2.4    34     6.2   885.3    0.00 
 210   10:00   0.77   80.0    13    2.3    26     5.5   885.2    0.00 
 210   10:10   0.78   80.1    14    2.4   171     7.5   885.2    0.00 
 210   10:20   0.80   80.0    13    3.2   308     6.2   885.2    0.00 
 210   10:30   0.81   81.3    16    1.7   149     4.2   885.1    0.00 
 210   10:40   0.82   81.7    16    1.5   227     3.9   885.0    0.00 
 210   10:50   0.82   82.2    16    2.2   169     4.3   885.0    0.00 
 210   11:00   0.84   82.3    15    2.7   125     5.7   884.9    0.00 
 210   11:10   0.85   82.4    19    2.9   209     6.6   884.7    0.00 
 210   11:20   0.85   81.8    19    2.9   165     5.9   884.7    0.00 
 210   11:30   0.86   83.2    19    2.5   204     4.6   884.6    0.00 
 210   11:40   0.86   83.4    17    2.2   194     4.5   884.6    0.00 
 210   11:50   0.87   83.1    16    2.9   209     6.2   884.5    0.00 
 210   12:00   0.87   83.1    18    3.4   215     4.9   884.4    0.00 
 210   12:10   0.87   83.3    16    3.5   184     9.9   884.3    0.00 
 210   12:20   0.86   85.5    13    1.7    38     4.0   884.3    0.00 
 210   12:30   0.86   87.2    15    0.9   204     2.6   884.2    0.00 
 210   12:40   0.86   87.0    13    3.4   126     6.6   884.0    0.00 
 210   12:50   0.85   86.5    12    3.7   135     7.0   883.9    0.00 
 210   13:00   0.84   86.4    11    2.5   133     5.6   883.8    0.00 
 210   13:10   0.83   89.0    11    1.5    62     4.6   883.7    0.00 
 210   13:20   0.82   89.7     9    2.7    19     6.2   883.5    0.00 
 210   13:30   0.81   89.8    11    2.8   292     4.9   883.4    0.00 
 210   13:40   0.80   88.0    15    3.3   219     5.6   883.3    0.00 
 210   13:50   0.78   88.6    14    2.5   149     7.0   883.2    0.00 
 210   14:00   0.76   89.5    11    2.9   123     7.1   883.1    0.00 
 210   14:10   0.75   89.8    11    3.8   111     9.3   883.0    0.00 
 210   14:20   0.73   90.1    11    3.1    59     7.4   882.8    0.00 
 210   14:30   0.71   91.4    12    2.5   154     7.2   882.7    0.00 
 210   14:40   0.69   90.8    10    2.4   112     6.7   882.6    0.00 
 210   14:50   0.67   91.7    14    1.9   205     4.2   882.4    0.00 
 210   15:00   0.65   90.2    14    2.7   169     4.8   882.3    0.00 
 210   15:10   0.62   91.4    12    2.3    82     5.6   882.1    0.00 
 210   15:20   0.60   91.9    11    1.9   111     4.5   881.9    0.00 
 210   15:30   0.57   92.8    10    2.6    36     6.0   881.7    0.00 
 210   15:40   0.55   92.2    10    3.8    82     6.6   881.5    0.00 

Return to south Mason Valley graphs page.


Western Regional Climate Center,wrcc@dri.edu